Time;durP1;ratioP1;P1;durP2;ratioP2;P2;SDS_P1;SDS_P2;PMS_P1;PMS_P2;Temp;Humidity;BMP_temperature;BMP_pressure;BME280_temperature;BME280_humidity;BME280_pressure;Samples;Min_cycle;Max_cycle;Signal;HPM_P1;HPM_P2
2023/02/16 00:01:45;;;;;;;1999.90;999.90;;;5.30;99.90;;;;;;5051496;28;21075;-68
2023/02/16 00:04:25;;;;;;;1999.90;999.90;;;5.20;99.90;;;;;;5051329;28;20456;-67
2023/02/16 00:06:52;;;;;;;1999.90;999.90;;;5.20;99.90;;;;;;5051407;28;20398;-68
2023/02/16 00:09:18;;;;;;;1999.90;999.90;;;5.20;99.90;;;;;;5053025;28;20399;-68
2023/02/16 00:14:29;;;;;;;1999.90;999.90;;;5.10;99.90;;;;;;5055246;28;20405;-67
2023/02/16 00:16:57;;;;;;;1999.90;999.90;;;5.10;99.90;;;;;;5055299;28;20410;-67
2023/02/16 00:19:29;;;;;;;1999.90;999.90;;;5.00;99.90;;;;;;5055055;28;20410;-68
2023/02/16 00:21:57;;;;;;;1999.90;999.90;;;4.90;99.90;;;;;;5054684;28;20425;-67
2023/02/16 00:24:23;;;;;;;1999.90;999.90;;;4.70;1.00;;;;;;5054912;28;20394;-68
2023/02/16 00:26:49;;;;;;;1999.90;999.90;;;4.80;99.90;;;;;;5054894;28;20919;-67
2023/02/16 00:29:38;;;;;;;1999.90;999.90;;;4.90;1.00;;;;;;5055161;28;20487;-67
2023/02/16 00:32:04;;;;;;;1999.90;999.90;;;5.00;1.00;;;;;;5041571;28;20293;-67
2023/02/16 00:34:37;;;;;;;1999.90;999.90;;;5.10;1.00;;;;;;5054542;28;20426;-68
2023/02/16 00:37:12;;;;;;;1999.90;999.90;;;5.00;1.00;;;;;;5054710;28;20513;-68
2023/02/16 00:39:40;;;;;;;1999.90;999.90;;;5.00;1.00;;;;;;5054644;28;20487;-69
2023/02/16 00:42:23;;;;;;;1999.90;999.90;;;5.00;1.00;;;;;;5054393;28;20406;-68
2023/02/16 00:44:51;;;;;;;1999.90;999.90;;;5.10;1.00;;;;;;5054604;28;20422;-67
2023/02/16 00:47:39;;;;;;;1999.90;999.90;;;5.10;1.00;;;;;;5054389;28;20491;-68
2023/02/16 00:50:24;;;;;;;1999.90;999.90;;;5.00;99.90;;;;;;5054502;28;20481;-67
2023/02/16 00:52:50;;;;;;;1999.90;999.90;;;4.90;99.90;;;;;;5054572;28;20411;-67
2023/02/16 00:55:19;;;;;;;1999.90;999.90;;;4.90;99.90;;;;;;5054434;28;20549;-67
2023/02/16 00:57:49;;;;;;;1999.90;999.90;;;4.90;99.90;;;;;;5054248;28;20176;-68
2023/02/16 01:00:31;;;;;;;1999.90;999.90;;;4.80;99.90;;;;;;5054060;28;20398;-68
2023/02/16 01:03:03;;;;;;;1999.90;999.90;;;4.80;1.00;;;;;;5054157;28;20453;-67
2023/02/16 01:05:29;;;;;;;1999.90;999.90;;;4.70;1.00;;;;;;5054143;28;20421;-68
2023/02/16 01:13:26;;;;;;;1999.90;999.90;;;4.70;1.00;;;;;;5054107;28;20397;-68
2023/02/16 01:15:52;;;;;;;1999.90;999.90;;;4.60;1.00;;;;;;5053833;28;20425;-67
2023/02/16 01:18:18;;;;;;;1999.90;999.90;;;4.50;1.00;;;;;;5053949;28;20471;-67
2023/02/16 01:20:45;;;;;;;1999.90;999.90;;;4.50;1.00;;;;;;5052494;28;20179;-68
2023/02/16 01:23:11;;;;;;;1999.90;999.90;;;4.50;1.00;;;;;;5053707;28;20446;-67
2023/02/16 01:25:38;;;;;;;1999.90;999.90;;;4.50;1.00;;;;;;5053675;28;20432;-67
2023/02/16 01:28:23;;;;;;;1999.90;999.90;;;4.40;1.00;;;;;;5053744;28;20931;-68
2023/02/16 01:30:49;;;;;;;1999.90;999.90;;;4.40;1.00;;;;;;5053622;28;20398;-70
2023/02/16 01:33:14;;;;;;;1999.90;999.90;;;4.30;1.00;;;;;;5053640;28;20525;-70
2023/02/16 01:35:41;;;;;;;1999.90;999.90;;;4.30;1.00;;;;;;5053368;28;20476;-70
2023/02/16 01:38:13;;;;;;;1999.90;999.90;;;4.20;1.00;;;;;;5053543;28;20180;-70
2023/02/16 01:41:04;;;;;;;1999.90;999.90;;;4.20;1.00;;;;;;5053380;28;20402;-70
2023/02/16 01:43:42;;;;;;;1999.90;999.90;;;4.20;1.00;;;;;;5053381;28;20446;-70
2023/02/16 01:46:33;;;;;;;1999.90;999.90;;;4.20;1.00;;;;;;5053113;28;20422;-71
2023/02/16 01:48:59;;;;;;;1999.90;999.90;;;4.20;1.00;;;;;;5053348;28;20402;-70
2023/02/16 01:51:33;;;;;;;1999.90;999.90;;;4.10;1.00;;;;;;5053296;28;20405;-71
2023/02/16 01:54:37;;;;;;;1999.90;999.90;;;4.10;1.00;;;;;;5053266;28;20218;-71
2023/02/16 01:57:09;;;;;;;1999.90;999.90;;;4.00;1.00;;;;;;5048569;28;20422;-70
2023/02/16 01:59:47;;;;;;;1999.90;999.90;;;4.00;1.00;;;;;;5053253;28;20405;-67
2023/02/16 02:02:26;;;;;;;1999.90;999.90;;;4.00;1.00;;;;;;5052863;28;20822;-68
2023/02/16 02:07:48;;;;;;;1999.90;999.90;;;3.90;1.00;;;;;;5053748;28;20805;-69
2023/02/16 02:10:26;;;;;;;1999.90;999.90;;;4.00;1.00;;;;;;5053007;28;20402;-71
2023/02/16 02:12:58;;;;;;;1999.90;999.90;;;3.90;1.00;;;;;;5053341;28;20455;-72
2023/02/16 02:15:28;;;;;;;1999.90;999.90;;;4.00;1.00;;;;;;5052919;28;20423;-68
2023/02/16 02:17:54;;;;;;;1999.90;999.90;;;3.90;1.00;;;;;;5052932;28;20501;-71
2023/02/16 02:23:59;;;;;;;1999.90;999.90;;;3.90;1.00;;;;;;5052659;28;20203;-71
2023/02/16 02:26:30;;;;;;;1999.90;999.90;;;3.90;1.00;;;;;;5052622;28;20425;-71
2023/02/16 02:29:10;;;;;;;1999.90;999.90;;;3.80;1.00;;;;;;5052800;28;20749;-72
2023/02/16 02:31:58;;;;;;;1999.90;999.90;;;3.80;1.00;;;;;;5052115;28;20459;-71
2023/02/16 02:34:42;;;;;;;1999.90;999.90;;;3.80;1.00;;;;;;5052538;28;20398;-71
2023/02/16 02:37:28;;;;;;;1999.90;999.90;;;3.60;1.00;;;;;;5052507;28;20399;-71
2023/02/16 02:40:04;;;;;;;1999.90;999.90;;;3.30;1.00;;;;;;5053052;28;20433;-71
2023/02/16 02:42:57;;;;;;;1999.90;999.90;;;3.60;1.00;;;;;;5052478;28;20451;-71
2023/02/16 02:45:29;;;;;;;1999.90;999.90;;;3.60;1.00;;;;;;5052685;28;20509;-71
2023/02/16 02:47:55;;;;;;;1999.90;999.90;;;3.60;1.00;;;;;;5052807;28;20399;-70
2023/02/16 02:51:27;;;;;;;1999.90;999.90;;;3.50;1.00;;;;;;5052650;28;20459;-71
2023/02/16 02:53:33;;;;;;;1999.90;999.90;;;3.50;1.00;;;;;;5052490;28;20176;-71
2023/02/16 03:01:36;;;;;;;1999.90;999.90;;;3.40;1.00;;;;;;5052500;28;20405;-71
2023/02/16 03:04:05;;;;;;;1999.90;999.90;;;3.40;1.00;;;;;;5052032;28;20449;-71
2023/02/16 03:06:35;;;;;;;1999.90;999.90;;;3.40;1.00;;;;;;5051962;28;20483;-71
2023/02/16 03:09:07;;;;;;;1999.90;999.90;;;3.40;1.00;;;;;;5052422;28;20460;-70
2023/02/16 03:14:19;;;;;;;1999.90;999.90;;;3.40;1.00;;;;;;5053021;28;20417;-70
2023/02/16 03:30:36;;;;;;;1999.90;999.90;;;3.20;1.00;;;;;;5052368;28;20433;-69
2023/02/16 03:33:02;;;;;;;1999.90;999.90;;;3.20;1.00;;;;;;5051986;28;20425;-70
2023/02/16 03:35:28;;;;;;;1999.90;999.90;;;3.20;1.00;;;;;;5051789;28;20755;-68
2023/02/16 03:37:53;;;;;;;1999.90;999.90;;;3.10;1.00;;;;;;5051994;28;20178;-71
2023/02/16 03:40:29;;;;;;;1999.90;999.90;;;3.10;1.00;;;;;;5051819;28;20822;-69
2023/02/16 03:43:06;;;;;;;1999.90;999.90;;;3.00;1.00;;;;;;5051803;28;20282;-70
2023/02/16 03:45:33;;;;;;;1999.90;999.90;;;2.90;1.00;;;;;;5055732;28;20417;-70
2023/02/16 03:47:59;;;;;;;1999.90;999.90;;;2.90;1.00;;;;;;5056155;28;20186;-70
2023/02/16 03:50:26;;;;;;;1999.90;999.90;;;2.90;1.00;;;;;;5056179;28;20439;-69
2023/02/16 03:52:52;;;;;;;1999.90;999.90;;;3.00;1.00;;;;;;5056456;28;20405;-69
2023/02/16 03:55:18;;;;;;;1999.90;999.90;;;3.10;1.00;;;;;;5056108;28;20198;-69
2023/02/16 03:57:43;;;;;;;1999.90;999.90;;;3.20;1.00;;;;;;5056181;28;20167;-69
2023/02/16 04:00:10;;;;;;;1999.90;999.90;;;3.20;1.00;;;;;;5056086;28;20926;-69
2023/02/16 04:02:35;;;;;;;1999.90;999.90;;;3.30;1.00;;;;;;5055775;28;20210;-69
2023/02/16 04:05:01;;;;;;;1999.90;999.90;;;3.30;1.00;;;;;;5055899;28;20731;-69
2023/02/16 04:07:26;;;;;;;1999.90;999.90;;;3.30;1.00;;;;;;5055666;28;20163;-70
2023/02/16 04:09:52;;;;;;;1999.90;999.90;;;3.30;1.00;;;;;;5055738;28;20221;-69
2023/02/16 04:12:36;;;;;;;1999.90;999.90;;;3.20;1.00;;;;;;5055603;28;20266;-69
2023/02/16 04:15:04;;;;;;;1999.90;999.90;;;3.20;1.00;;;;;;5055590;28;20567;-69
2023/02/16 04:17:30;;;;;;;1999.90;999.90;;;3.20;1.00;;;;;;5055798;28;20402;-69
2023/02/16 04:19:55;;;;;;;1999.90;999.90;;;3.20;1.00;;;;;;5055467;28;20577;-69
2023/02/16 04:22:21;;;;;;;1999.90;999.90;;;3.20;1.00;;;;;;5055500;28;20285;-69
2023/02/16 04:24:46;;;;;;;1999.90;999.90;;;3.20;1.00;;;;;;5055408;28;20271;-69
2023/02/16 04:27:12;;;;;;;1999.90;999.90;;;3.20;1.00;;;;;;5055194;28;20164;-69
2023/02/16 04:29:38;;;;;;;1999.90;999.90;;;3.20;1.00;;;;;;5055139;28;20258;-69
2023/02/16 04:32:04;;;;;;;1999.90;999.90;;;3.20;1.00;;;;;;5054485;28;20156;-69
2023/02/16 04:34:29;;;;;;;1999.90;999.90;;;3.10;1.00;;;;;;5054444;28;20176;-70
2023/02/16 04:36:55;;;;;;;1999.90;999.90;;;3.30;1.00;;;;;;5036724;28;20417;-69
2023/02/16 04:39:21;;;;;;;1999.90;999.90;;;3.30;1.00;;;;;;5053931;28;20203;-70
2023/02/16 04:41:46;;;;;;;1999.90;999.90;;;3.30;1.00;;;;;;5054590;28;20210;-70
2023/02/16 04:44:12;;;;;;;1999.90;999.90;;;3.40;1.00;;;;;;5053851;28;20706;-69
2023/02/16 04:46:37;;;;;;;1999.90;999.90;;;3.40;1.00;;;;;;5054501;28;20657;-69
2023/02/16 04:49:03;;;;;;;1999.90;999.90;;;3.40;1.00;;;;;;5053931;28;20191;-69
2023/02/16 04:51:29;;;;;;;1999.90;999.90;;;3.40;1.00;;;;;;5053974;28;20176;-69
2023/02/16 04:53:54;;;;;;;1999.90;999.90;;;3.50;1.00;;;;;;5054449;28;20266;-69
2023/02/16 04:56:20;;;;;;;1999.90;999.90;;;3.50;1.00;;;;;;5053661;28;20192;-69
2023/02/16 04:58:46;;;;;;;1999.90;999.90;;;3.50;1.00;;;;;;5054017;28;20633;-69
2023/02/16 05:01:22;;;;;;;1999.90;999.90;;;3.50;1.00;;;;;;5053493;28;20174;-69
2023/02/16 05:03:48;;;;;;;1999.90;999.90;;;3.50;1.00;;;;;;5054003;28;20191;-69
2023/02/16 05:06:14;;;;;;;1999.90;999.90;;;3.50;1.00;;;;;;5053451;28;20418;-69
2023/02/16 05:08:40;;;;;;;1999.90;999.90;;;3.50;1.00;;;;;;5053530;28;20482;-69
2023/02/16 05:16:33;;;;;;;1999.90;999.90;;;3.50;1.00;;;;;;5053467;28;20452;-69
2023/02/16 05:18:59;;;;;;;1999.90;999.90;;;3.50;1.00;;;;;;5053585;28;20207;-69
2023/02/16 05:21:30;;;;;;;1999.90;999.90;;;3.50;1.00;;;;;;5053328;28;20203;-69
2023/02/16 05:24:00;;;;;;;1999.90;999.90;;;3.50;1.00;;;;;;5053914;28;20218;-69
2023/02/16 05:26:27;;;;;;;1999.90;999.90;;;3.60;1.00;;;;;;5053808;28;20433;-69
2023/02/16 05:28:53;;;;;;;1999.90;999.90;;;3.60;1.00;;;;;;5054328;28;20409;-70
2023/02/16 05:31:19;;;;;;;1999.90;999.90;;;3.60;1.00;;;;;;5054439;28;20418;-70
2023/02/16 05:33:45;;;;;;;1999.90;999.90;;;3.60;1.00;;;;;;5054903;28;20417;-70
2023/02/16 05:36:10;;;;;;;1999.90;999.90;;;3.60;1.00;;;;;;5053387;28;20476;-70
2023/02/16 05:38:37;;;;;;;1999.90;999.90;;;3.60;1.00;;;;;;5054422;28;20199;-70
2023/02/16 05:41:03;;;;;;;1999.90;999.90;;;3.60;1.00;;;;;;5053607;28;20410;-70
2023/02/16 05:43:28;;;;;;;1999.90;999.90;;;3.70;1.00;;;;;;5053570;28;20201;-70
2023/02/16 05:45:54;;;;;;;1999.90;999.90;;;3.80;1.00;;;;;;5053742;28;20278;-69
2023/02/16 05:48:19;;;;;;;1999.90;999.90;;;3.80;1.00;;;;;;5053690;28;20179;-70
2023/02/16 05:50:45;;;;;;;1999.90;999.90;;;3.80;1.00;;;;;;5053693;28;20171;-70
2023/02/16 05:53:11;;;;;;;1999.90;999.90;;;3.80;1.00;;;;;;5053629;28;20186;-70
2023/02/16 05:55:36;;;;;;;1999.90;999.90;;;3.90;1.00;;;;;;5036171;28;20695;-70
2023/02/16 05:58:02;;;;;;;1999.90;999.90;;;3.90;1.00;;;;;;5053553;28;20518;-70
2023/02/16 06:00:32;;;;;;;1999.90;999.90;;;4.00;1.00;;;;;;5053619;28;20180;-70
2023/02/16 06:02:58;;;;;;;1999.90;999.90;;;4.10;1.00;;;;;;5053326;28;20294;-69
2023/02/16 06:05:24;;;;;;;1999.90;999.90;;;4.20;1.00;;;;;;5054053;28;20574;-70
2023/02/16 06:07:50;;;;;;;1999.90;999.90;;;4.10;1.00;;;;;;5053435;28;20966;-70
2023/02/16 06:10:16;;;;;;;1999.90;999.90;;;4.10;1.00;;;;;;5053619;28;20489;-70
2023/02/16 06:12:41;;;;;;;1999.90;999.90;;;4.10;1.00;;;;;;5054425;28;20171;-70
2023/02/16 06:15:07;;;;;;;1999.90;999.90;;;4.10;1.00;;;;;;5054361;28;20440;-70
2023/02/16 06:17:33;;;;;;;1999.90;999.90;;;4.20;1.00;;;;;;5054121;28;20175;-70
2023/02/16 06:19:58;;;;;;;1999.90;999.90;;;4.20;1.00;;;;;;5053524;28;20410;-69
2023/02/16 06:22:24;;;;;;;1999.90;999.90;;;4.20;1.00;;;;;;5052740;28;20203;-69
2023/02/16 06:24:49;;;;;;;1999.90;999.90;;;4.20;1.00;;;;;;5052911;28;20187;-68
2023/02/16 06:27:15;;;;;;;1999.90;999.90;;;4.20;1.00;;;;;;5052445;28;20175;-69
2023/02/16 06:29:41;;;;;;;1999.90;999.90;;;4.10;1.00;;;;;;5052464;28;20641;-69
2023/02/16 06:32:06;;;;;;;1999.90;999.90;;;4.10;1.00;;;;;;5052908;28;20164;-69
2023/02/16 06:34:32;;;;;;;1999.90;999.90;;;4.00;1.00;;;;;;5052208;28;20262;-69
2023/02/16 06:36:57;;;;;;;1999.90;999.90;;;4.10;1.00;;;;;;5052643;28;20641;-69
2023/02/16 06:39:23;;;;;;;1999.90;999.90;;;4.00;1.00;;;;;;5034802;28;20172;-69
2023/02/16 06:41:49;;;;;;;1999.90;999.90;;;4.00;1.00;;;;;;5052039;28;20193;-69
2023/02/16 06:44:15;;;;;;;1999.90;999.90;;;4.00;1.00;;;;;;5052351;28;20565;-69
2023/02/16 06:46:43;;;;;;;1999.90;999.90;;;4.00;1.00;;;;;;5051920;28;20178;-69
2023/02/16 06:49:18;;;;;;;1999.90;999.90;;;4.00;1.00;;;;;;5052394;28;20413;-69
2023/02/16 06:51:45;;;;;;;1999.90;999.90;;;4.10;1.00;;;;;;5052206;28;20401;-68
2023/02/16 06:54:11;;;;;;;1999.90;999.90;;;4.10;1.00;;;;;;5051958;28;20468;-68
2023/02/16 06:56:36;;;;;;;1999.90;999.90;;;4.20;1.00;;;;;;5051932;28;20529;-69
2023/02/16 06:59:02;;;;;;;1999.90;999.90;;;4.30;1.00;;;;;;5051937;28;20505;-69
2023/02/16 07:01:28;;;;;;;1999.90;999.90;;;4.30;1.00;;;;;;5051886;28;20580;-69
2023/02/16 07:03:56;;;;;;;1999.90;999.90;;;4.50;1.00;;;;;;5051959;28;20484;-69
2023/02/16 07:06:23;;;;;;;1999.90;999.90;;;4.40;1.00;;;;;;5052092;28;20532;-69
2023/02/16 07:08:49;;;;;;;1999.90;999.90;;;4.50;1.00;;;;;;5052144;28;20771;-70
2023/02/16 07:11:16;;;;;;;1999.90;999.90;;;4.50;1.00;;;;;;5051744;28;20445;-69
2023/02/16 07:13:42;;;;;;;1999.90;999.90;;;4.60;1.00;;;;;;5052335;28;20417;-68
2023/02/16 07:16:08;;;;;;;1999.90;999.90;;;4.60;1.00;;;;;;5051844;28;20525;-69
2023/02/16 07:18:33;;;;;;;1999.90;999.90;;;4.60;1.00;;;;;;5051598;28;20402;-70
2023/02/16 07:20:59;;;;;;;1999.90;999.90;;;4.60;1.00;;;;;;5051337;28;20414;-70
2023/02/16 07:23:25;;;;;;;1999.90;999.90;;;4.70;1.00;;;;;;5034003;28;20207;-69
2023/02/16 07:25:51;;;;;;;1999.90;999.90;;;4.80;1.00;;;;;;5051092;28;20422;-69
2023/02/16 07:28:17;;;;;;;1999.90;999.90;;;4.80;1.00;;;;;;5051571;28;20402;-70
2023/02/16 07:30:43;;;;;;;1999.90;999.90;;;4.90;1.00;;;;;;5051282;28;20171;-70
2023/02/16 07:33:08;;;;;;;1999.90;999.90;;;4.90;1.00;;;;;;5051903;28;20491;-70
2023/02/16 07:35:35;;;;;;;1999.90;999.90;;;4.90;1.00;;;;;;5051803;28;20458;-70
2023/02/16 07:38:01;;;;;;;1999.90;999.90;;;4.90;1.00;;;;;;5051758;28;20179;-70
2023/02/16 07:40:27;;;;;;;1999.90;999.90;;;4.90;1.00;;;;;;5051623;28;20785;-70
2023/02/16 07:42:53;;;;;;;1999.90;999.90;;;4.90;1.00;;;;;;5051771;28;20458;-70
2023/02/16 07:45:18;;;;;;;1999.90;999.90;;;5.00;1.00;;;;;;5051742;28;20187;-70
2023/02/16 07:47:44;;;;;;;1999.90;999.90;;;5.10;1.00;;;;;;5051664;28;20773;-69
2023/02/16 07:50:10;;;;;;;1999.90;999.90;;;5.10;1.00;;;;;;5052118;28;20176;-68
2023/02/16 07:52:36;;;;;;;1999.90;999.90;;;5.10;1.00;;;;;;5052826;28;20180;-70
2023/02/16 07:55:01;;;;;;;1999.90;999.90;;;5.20;1.00;;;;;;5052108;28;20191;-72
2023/02/16 07:57:27;;;;;;;1999.90;999.90;;;5.30;1.00;;;;;;5051842;28;20750;-71
2023/02/16 07:59:54;;;;;;;1999.90;999.90;;;5.40;1.00;;;;;;5052041;28;20266;-72
2023/02/16 08:02:20;;;;;;;1999.90;999.90;;;5.40;1.00;;;;;;5051481;28;20442;-72
2023/02/16 08:04:47;;;;;;;1999.90;999.90;;;5.50;1.00;;;;;;5053401;28;20445;-71
2023/02/16 08:07:16;;;;;;;1999.90;999.90;;;5.60;1.00;;;;;;5054325;28;20402;-71
2023/02/16 08:09:42;;;;;;;1999.90;999.90;;;5.70;1.00;;;;;;5054886;28;20446;-71
2023/02/16 08:12:13;;;;;;;1999.90;999.90;;;5.70;1.00;;;;;;5053508;28;20919;-71
2023/02/16 08:14:39;;;;;;;1999.90;999.90;;;5.70;1.00;;;;;;5054656;28;20199;-71
2023/02/16 08:17:06;;;;;;;1999.90;999.90;;;5.70;1.00;;;;;;5054982;28;20950;-71
2023/02/16 08:19:32;;;;;;;1999.90;999.90;;;5.80;1.00;;;;;;5054798;28;20488;-71
2023/02/16 08:21:59;;;;;;;1999.90;999.90;;;5.90;1.00;;;;;;5053769;28;20832;-71
2023/02/16 08:24:25;;;;;;;1999.90;999.90;;;6.70;1.00;;;;;;5053861;28;20469;-71
2023/02/16 08:26:52;;;;;;;1999.90;999.90;;;6.30;1.00;;;;;;5034846;28;20460;-71
2023/02/16 08:29:19;;;;;;;1999.90;999.90;;;6.40;1.00;;;;;;5053820;28;20899;-71
2023/02/16 08:31:46;;;;;;;1999.90;999.90;;;6.50;1.00;;;;;;5057165;28;20441;-70
2023/02/16 08:34:13;;;;;;;1999.90;999.90;;;6.60;1.00;;;;;;5057256;28;20410;-71
2023/02/16 08:36:43;;;;;;;1999.90;999.90;;;6.70;99.90;;;;;;5056044;28;20832;-71
2023/02/16 08:39:15;;;;;;;1999.90;999.90;;;6.80;99.90;;;;;;5057584;28;20412;-71
2023/02/16 08:41:43;;;;;;;1999.90;999.90;;;6.90;99.90;;;;;;5058059;28;20848;-71
2023/02/16 08:44:09;;;;;;;1999.90;999.90;;;7.00;99.90;;;;;;5057117;28;20543;-71
2023/02/16 08:46:38;;;;;;;1999.90;999.90;;;7.00;99.90;;;;;;5057785;28;20430;-71
2023/02/16 08:49:04;;;;;;;1999.90;999.90;;;6.90;99.90;;;;;;5058179;28;20421;-71
2023/02/16 08:51:34;;;;;;;1999.90;999.90;;;6.90;99.90;;;;;;5057406;28;20429;-71
2023/02/16 08:54:01;;;;;;;1999.90;999.90;;;6.90;99.90;;;;;;5055821;28;20777;-70
2023/02/16 08:56:31;;;;;;;1999.90;999.90;;;6.90;99.90;;;;;;5054190;28;20427;-71
2023/02/16 08:58:58;;;;;;;1999.90;999.90;;;7.00;1.00;;;;;;5054367;28;20414;-71
2023/02/16 09:01:24;;;;;;;1999.90;999.90;;;7.10;1.00;;;;;;5054491;28;20402;-70
2023/02/16 09:03:51;;;;;;;1999.90;999.90;;;7.30;1.00;;;;;;5054573;28;20545;-71
2023/02/16 09:06:21;;;;;;;1999.90;999.90;;;7.30;99.90;;;;;;5054180;28;20430;-71
2023/02/16 09:08:55;;;;;;;1999.90;999.90;;;7.50;99.90;;;;;;5054311;28;20404;-70
2023/02/16 09:11:22;;;;;;;1999.90;999.90;;;7.70;99.90;;;;;;5053915;28;20394;-71
2023/02/16 09:13:49;;;;;;;1999.90;999.90;;;7.90;99.90;;;;;;5054013;28;20894;-70
2023/02/16 09:16:17;;;;;;;1999.90;999.90;;;8.10;99.90;;;;;;5053657;28;20430;-71
2023/02/16 09:18:44;;;;;;;1999.90;999.90;;;8.30;99.90;;;;;;5053946;28;20404;-71
2023/02/16 09:21:14;;;;;;;1999.90;999.90;;;8.60;99.90;;;;;;5053866;28;20431;-71
2023/02/16 09:23:42;;;;;;;1999.90;999.90;;;9.10;99.90;;;;;;5053786;28;20826;-71
2023/02/16 09:26:08;;;;;;;1999.90;999.90;;;9.20;99.90;;;;;;5053219;28;20433;-71
2023/02/16 09:28:38;;;;;;;1999.90;999.90;;;9.40;99.90;;;;;;5053459;28;20398;-71
2023/02/16 09:31:14;;;;;;;1999.90;999.90;;;9.50;99.90;;;;;;5053517;28;20401;-71
2023/02/16 09:33:41;;;;;;;1999.90;999.90;;;9.60;99.90;;;;;;5053626;28;20456;-71
2023/02/16 09:36:09;;;;;;;1999.90;999.90;;;9.60;99.90;;;;;;5053379;28;20547;-71
2023/02/16 09:38:35;;;;;;;1999.90;999.90;;;9.60;99.90;;;;;;5053645;28;20417;-71
2023/02/16 09:41:18;;;;;;;1999.90;999.90;;;9.70;99.90;;;;;;5052462;28;20411;-71
2023/02/16 09:44:10;;;;;;;1999.90;999.90;;;9.80;99.90;;;;;;5053402;28;20446;-71
2023/02/16 09:46:37;;;;;;;1999.90;999.90;;;9.80;99.90;;;;;;5052743;28;20438;-71
2023/02/16 09:49:03;;;;;;;1999.90;999.90;;;9.90;99.90;;;;;;5053325;28;20926;-71
2023/02/16 09:51:37;;;;;;;1999.90;999.90;;;9.80;99.90;;;;;;5052948;28;20883;-71
2023/02/16 09:54:21;;;;;;;1999.90;999.90;;;9.80;99.90;;;;;;5053341;28;20409;-71
2023/02/16 09:56:56;;;;;;;1999.90;999.90;;;9.90;99.90;;;;;;5053357;28;20773;-71
2023/02/16 09:59:46;;;;;;;1999.90;999.90;;;9.90;99.90;;;;;;5053212;28;20433;-71
2023/02/16 10:02:33;;;;;;;1999.90;999.90;;;10.00;99.90;;;;;;5052841;28;20416;-70
2023/02/16 10:05:19;;;;;;;1999.90;999.90;;;9.90;99.90;;;;;;5053093;28;20444;-70
2023/02/16 10:08:06;;;;;;;1999.90;999.90;;;10.00;99.90;;;;;;5052961;28;20455;-71
2023/02/16 10:10:44;;;;;;;1999.90;999.90;;;10.00;99.90;;;;;;5052988;28;20394;-71
2023/02/16 10:13:19;;;;;;;1999.90;999.90;;;10.10;99.90;;;;;;5052963;28;20580;-71
2023/02/16 10:15:46;;;;;;;1999.90;999.90;;;10.40;99.90;;;;;;5052792;28;20933;-71
2023/02/16 10:18:29;;;;;;;1999.90;999.90;;;10.20;99.90;;;;;;5052820;28;20448;-71
2023/02/16 10:20:58;;;;;;;1999.90;999.90;;;10.30;99.90;;;;;;5053572;28;20398;-71
2023/02/16 10:23:49;;;;;;;1999.90;999.90;;;10.20;99.90;;;;;;5052526;28;20453;-71
2023/02/16 10:26:45;;;;;;;1999.90;999.90;;;10.30;99.90;;;;;;5052397;28;20425;-70
2023/02/16 10:29:22;;;;;;;1999.90;999.90;;;10.30;99.90;;;;;;5037037;28;20495;-71
2023/02/16 10:32:03;;;;;;;1999.90;999.90;;;10.30;99.90;;;;;;5052551;28;20661;-71
2023/02/16 10:34:44;;;;;;;1999.90;999.90;;;10.20;99.90;;;;;;5052380;28;20795;-71
2023/02/16 10:37:21;;;;;;;1999.90;999.90;;;10.50;99.90;;;;;;5052361;28;20428;-71
2023/02/16 10:40:14;;;;;;;1999.90;999.90;;;10.70;99.90;;;;;;5052646;28;20390;-71
2023/02/16 10:42:55;;;;;;;1999.90;999.90;;;10.90;99.90;;;;;;5052216;28;20449;-71
2023/02/16 10:45:34;;;;;;;1999.90;999.90;;;11.00;99.90;;;;;;5052136;28;20429;-71
2023/02/16 10:48:00;;;;;;;1999.90;999.90;;;11.10;99.90;;;;;;5052320;28;20900;-71
2023/02/16 10:50:26;;;;;;;1999.90;999.90;;;11.10;99.90;;;;;;5052197;28;20418;-72
2023/02/16 10:52:59;;;;;;;1999.90;999.90;;;11.10;99.90;;;;;;5052034;28;20520;-71
2023/02/16 10:55:25;;;;;;;1999.90;999.90;;;11.00;99.90;;;;;;5052166;28;20680;-71
2023/02/16 10:57:55;;;;;;;1999.90;999.90;;;11.00;99.90;;;;;;5051955;28;20409;-71
2023/02/16 11:00:26;;;;;;;1999.90;999.90;;;11.00;99.90;;;;;;5051687;28;20687;-71
2023/02/16 11:02:52;;;;;;;1999.90;999.90;;;11.00;99.90;;;;;;5052107;28;20515;-71
2023/02/16 11:05:36;;;;;;;1999.90;999.90;;;10.90;99.90;;;;;;5052075;28;20776;-71
2023/02/16 11:08:04;;;;;;;1999.90;999.90;;;10.90;99.90;;;;;;5051847;28;20947;-71
2023/02/16 11:10:47;;;;;;;1999.90;999.90;;;10.80;99.90;;;;;;5051686;28;20398;-71
2023/02/16 11:13:28;;;;;;;1999.90;999.90;;;10.90;99.90;;;;;;5052105;28;20708;-70
2023/02/16 11:15:59;;;;;;;1999.90;999.90;;;10.90;99.90;;;;;;5051759;28;20426;-71
2023/02/16 11:18:30;;;;;;;1999.90;999.90;;;11.00;99.90;;;;;;5051755;28;20397;-71
2023/02/16 11:20:57;;;;;;;1999.90;999.90;;;11.10;99.90;;;;;;5051550;28;20453;-71
2023/02/16 11:23:24;;;;;;;1999.90;999.90;;;11.20;99.90;;;;;;5051526;28;20449;-71
2023/02/16 11:25:57;;;;;;;1999.90;999.90;;;11.30;99.90;;;;;;5051552;28;20513;-71
2023/02/16 11:28:41;;;;;;;1999.90;999.90;;;11.30;99.90;;;;;;5050999;28;20398;-72
2023/02/16 11:31:38;;;;;;;1999.90;999.90;;;11.40;99.90;;;;;;5050331;28;20406;-71
2023/02/16 11:34:22;;;;;;;1999.90;999.90;;;11.50;99.90;;;;;;5051697;28;20532;-70
2023/02/16 11:36:48;;;;;;;1999.90;999.90;;;11.60;99.90;;;;;;5047010;28;20909;-70
2023/02/16 11:39:19;;;;;;;1999.90;999.90;;;11.70;99.90;;;;;;5030949;28;20401;-71
2023/02/16 11:41:55;;;;;;;1999.90;999.90;;;11.80;99.90;;;;;;5028274;28;20185;-70
2023/02/16 11:44:33;;;;;;;1999.90;999.90;;;11.80;99.90;;;;;;5030069;28;20541;-70
2023/02/16 11:47:03;;;;;;;1999.90;999.90;;;11.70;99.90;;;;;;5029986;28;20801;-70
2023/02/16 11:49:36;;;;;;;1999.90;999.90;;;11.60;99.90;;;;;;5030286;28;20403;-68
2023/02/16 11:52:22;;;;;;;1999.90;999.90;;;11.50;99.90;;;;;;5029880;28;20481;-69
2023/02/16 11:54:49;;;;;;;1999.90;999.90;;;11.50;99.90;;;;;;5012256;28;20438;-68
2023/02/16 11:57:28;;;;;;;1999.90;999.90;;;11.30;99.90;;;;;;5030106;28;20755;-70
2023/02/16 11:59:56;;;;;;;1999.90;999.90;;;11.30;99.90;;;;;;5030169;28;20474;-67
2023/02/16 12:02:39;;;;;;;1999.90;999.90;;;11.20;99.90;;;;;;5029032;28;20962;-70
2023/02/16 12:05:36;;;;;;;1999.90;999.90;;;11.20;99.90;;;;;;5030941;28;20938;-70
2023/02/16 12:08:22;;;;;;;1999.90;999.90;;;11.20;99.90;;;;;;5033801;28;20894;-69
2023/02/16 12:11:10;;;;;;;1999.90;999.90;;;11.10;99.90;;;;;;5033514;28;20420;-71
2023/02/16 12:14:10;;;;;;;1999.90;999.90;;;11.10;99.90;;;;;;5032996;28;20449;-71
2023/02/16 12:16:55;;;;;;;1999.90;999.90;;;11.10;99.90;;;;;;5034207;28;20431;-71
2023/02/16 12:20:03;;;;;;;1999.90;999.90;;;11.20;99.90;;;;;;5034893;28;20415;-70
2023/02/16 12:23:02;;;;;;;1999.90;999.90;;;11.10;99.90;;;;;;4988478;28;20410;-71
2023/02/16 12:25:37;;;;;;;1999.90;999.90;;;11.10;99.90;;;;;;5004610;28;20439;-71
2023/02/16 12:28:32;;;;;;;1999.90;999.90;;;11.10;99.90;;;;;;5056938;28;20424;-69
2023/02/16 12:31:27;;;;;;;1999.90;999.90;;;11.10;99.90;;;;;;5038539;28;20418;-72
2023/02/16 12:34:18;;;;;;;1999.90;999.90;;;11.10;99.90;;;;;;5056342;28;20440;-71
2023/02/16 12:37:15;;;;;;;1999.90;999.90;;;11.20;99.90;;;;;;5056582;28;20414;-71
2023/02/16 12:39:55;;;;;;;1999.90;999.90;;;11.30;99.90;;;;;;5056951;28;20406;-71
2023/02/16 12:42:31;;;;;;;1999.90;999.90;;;11.30;99.90;;;;;;5056760;28;20830;-71
2023/02/16 12:45:04;;;;;;;1999.90;999.90;;;11.30;99.90;;;;;;5056989;28;20445;-71
2023/02/16 12:47:40;;;;;;;1999.90;999.90;;;11.50;99.90;;;;;;5057819;28;20487;-71
2023/02/16 12:50:17;;;;;;;1999.90;999.90;;;11.60;99.90;;;;;;5057418;28;20477;-71
2023/02/16 12:53:06;;;;;;;1999.90;999.90;;;11.70;99.90;;;;;;5056565;28;20421;-71
2023/02/16 12:55:35;;;;;;;1999.90;999.90;;;11.80;99.90;;;;;;5056963;28;20437;-70
2023/02/16 12:58:31;;;;;;;1999.90;999.90;;;11.90;99.90;;;;;;5056996;28;20410;-71
2023/02/16 13:01:10;;;;;;;1999.90;999.90;;;11.90;99.90;;;;;;5043124;28;20418;-71
2023/02/16 13:04:05;;;;;;;1999.90;999.90;;;12.00;99.90;;;;;;5057193;28;20458;-71
2023/02/16 13:07:00;;;;;;;1999.90;999.90;;;12.10;99.90;;;;;;5063093;28;20422;-70
2023/02/16 13:09:48;;;;;;;1999.90;999.90;;;12.10;99.90;;;;;;5060784;28;20432;-71
2023/02/16 13:12:23;;;;;;;1999.90;999.90;;;12.20;99.90;;;;;;5056196;28;20541;-70
2023/02/16 13:15:01;;;;;;;1999.90;999.90;;;12.40;99.90;;;;;;5061852;28;20419;-69
2023/02/16 13:17:50;;;;;;;1999.90;999.90;;;12.50;99.90;;;;;;5059659;28;21086;-69